sensor_id;sensor_type;location;lat;lon;timestamp;P1;durP1;ratioP1;P2;durP2;ratioP2
76807;SDS011;65758;45.458;11.062;2023-07-31T00:01:43;4.20;;;3.80;;
76807;SDS011;65758;45.458;11.062;2023-07-31T00:04:10;4.00;;;3.20;;
76807;SDS011;65758;45.458;11.062;2023-07-31T00:06:37;5.40;;;3.80;;
76807;SDS011;65758;45.458;11.062;2023-07-31T00:09:04;4.40;;;3.80;;
76807;SDS011;65758;45.458;11.062;2023-07-31T00:11:31;4.50;;;3.70;;
76807;SDS011;65758;45.458;11.062;2023-07-31T00:13:57;4.70;;;3.80;;
76807;SDS011;65758;45.458;11.062;2023-07-31T00:16:24;3.60;;;3.30;;
76807;SDS011;65758;45.458;11.062;2023-07-31T00:18:51;4.00;;;3.60;;
76807;SDS011;65758;45.458;11.062;2023-07-31T00:21:18;5.50;;;3.50;;
76807;SDS011;65758;45.458;11.062;2023-07-31T00:23:45;3.60;;;3.30;;
76807;SDS011;65758;45.458;11.062;2023-07-31T00:26:11;3.90;;;3.50;;
76807;SDS011;65758;45.458;11.062;2023-07-31T00:28:38;5.20;;;3.60;;
76807;SDS011;65758;45.458;11.062;2023-07-31T00:31:05;5.20;;;3.40;;
76807;SDS011;65758;45.458;11.062;2023-07-31T00:33:34;5.20;;;3.70;;
76807;SDS011;65758;45.458;11.062;2023-07-31T00:36:02;3.20;;;3.00;;
76807;SDS011;65758;45.458;11.062;2023-07-31T00:38:29;4.50;;;3.40;;
76807;SDS011;65758;45.458;11.062;2023-07-31T00:40:56;4.10;;;3.30;;
76807;SDS011;65758;45.458;11.062;2023-07-31T00:43:24;4.10;;;3.70;;
76807;SDS011;65758;45.458;11.062;2023-07-31T00:45:51;3.30;;;3.00;;
76807;SDS011;65758;45.458;11.062;2023-07-31T00:48:18;5.00;;;3.30;;
76807;SDS011;65758;45.458;11.062;2023-07-31T00:50:45;3.30;;;3.10;;
76807;SDS011;65758;45.458;11.062;2023-07-31T00:53:12;3.30;;;3.00;;
76807;SDS011;65758;45.458;11.062;2023-07-31T00:55:40;3.40;;;3.10;;
76807;SDS011;65758;45.458;11.062;2023-07-31T00:58:07;3.20;;;2.90;;
76807;SDS011;65758;45.458;11.062;2023-07-31T01:00:33;3.50;;;3.20;;
76807;SDS011;65758;45.458;11.062;2023-07-31T01:03:00;5.10;;;3.80;;
76807;SDS011;65758;45.458;11.062;2023-07-31T01:06:15;4.00;;;3.60;;
76807;SDS011;65758;45.458;11.062;2023-07-31T01:11:15;4.50;;;3.70;;
76807;SDS011;65758;45.458;11.062;2023-07-31T01:13:46;3.70;;;3.30;;
76807;SDS011;65758;45.458;11.062;2023-07-31T01:16:14;4.30;;;3.60;;
76807;SDS011;65758;45.458;11.062;2023-07-31T01:18:40;6.30;;;3.70;;
76807;SDS011;65758;45.458;11.062;2023-07-31T01:24:01;6.30;;;4.10;;
76807;SDS011;65758;45.458;11.062;2023-07-31T01:26:34;5.40;;;3.90;;
76807;SDS011;65758;45.458;11.062;2023-07-31T01:29:17;5.70;;;3.60;;
76807;SDS011;65758;45.458;11.062;2023-07-31T01:31:59;4.40;;;4.00;;
76807;SDS011;65758;45.458;11.062;2023-07-31T01:34:29;4.30;;;3.80;;
76807;SDS011;65758;45.458;11.062;2023-07-31T01:36:57;5.10;;;3.70;;
76807;SDS011;65758;45.458;11.062;2023-07-31T01:39:24;5.20;;;3.70;;
76807;SDS011;65758;45.458;11.062;2023-07-31T01:41:51;4.00;;;3.60;;
76807;SDS011;65758;45.458;11.062;2023-07-31T01:44:19;4.60;;;4.20;;
76807;SDS011;65758;45.458;11.062;2023-07-31T01:46:46;4.50;;;3.90;;
76807;SDS011;65758;45.458;11.062;2023-07-31T01:49:13;4.90;;;3.80;;
76807;SDS011;65758;45.458;11.062;2023-07-31T01:51:40;4.90;;;4.00;;
76807;SDS011;65758;45.458;11.062;2023-07-31T01:54:07;4.90;;;4.30;;
76807;SDS011;65758;45.458;11.062;2023-07-31T01:56:34;5.00;;;4.50;;
76807;SDS011;65758;45.458;11.062;2023-07-31T01:59:00;5.40;;;4.10;;
76807;SDS011;65758;45.458;11.062;2023-07-31T02:01:27;7.50;;;4.40;;
76807;SDS011;65758;45.458;11.062;2023-07-31T02:03:54;6.10;;;4.50;;
76807;SDS011;65758;45.458;11.062;2023-07-31T02:06:21;6.30;;;4.20;;
76807;SDS011;65758;45.458;11.062;2023-07-31T02:08:49;6.60;;;3.90;;
76807;SDS011;65758;45.458;11.062;2023-07-31T02:11:16;4.10;;;3.70;;
76807;SDS011;65758;45.458;11.062;2023-07-31T02:13:42;4.20;;;3.90;;
76807;SDS011;65758;45.458;11.062;2023-07-31T02:16:09;4.60;;;4.20;;
76807;SDS011;65758;45.458;11.062;2023-07-31T02:18:36;5.80;;;3.80;;
76807;SDS011;65758;45.458;11.062;2023-07-31T02:21:03;4.20;;;3.90;;
76807;SDS011;65758;45.458;11.062;2023-07-31T02:23:30;4.50;;;4.10;;
76807;SDS011;65758;45.458;11.062;2023-07-31T02:25:56;4.40;;;4.00;;
76807;SDS011;65758;45.458;11.062;2023-07-31T02:28:24;4.20;;;3.80;;
76807;SDS011;65758;45.458;11.062;2023-07-31T02:30:51;4.70;;;4.40;;
76807;SDS011;65758;45.458;11.062;2023-07-31T02:33:18;4.80;;;4.10;;
76807;SDS011;65758;45.458;11.062;2023-07-31T02:35:45;5.00;;;4.60;;
76807;SDS011;65758;45.458;11.062;2023-07-31T02:38:12;4.70;;;4.20;;
76807;SDS011;65758;45.458;11.062;2023-07-31T02:40:39;4.80;;;4.20;;
76807;SDS011;65758;45.458;11.062;2023-07-31T02:43:08;5.20;;;4.70;;
76807;SDS011;65758;45.458;11.062;2023-07-31T02:45:35;6.60;;;4.70;;
76807;SDS011;65758;45.458;11.062;2023-07-31T02:48:02;4.80;;;4.40;;
76807;SDS011;65758;45.458;11.062;2023-07-31T02:50:29;4.80;;;4.30;;
76807;SDS011;65758;45.458;11.062;2023-07-31T02:52:56;5.00;;;4.50;;
76807;SDS011;65758;45.458;11.062;2023-07-31T02:55:23;5.70;;;4.90;;
76807;SDS011;65758;45.458;11.062;2023-07-31T02:57:50;5.30;;;4.70;;
76807;SDS011;65758;45.458;11.062;2023-07-31T03:00:19;5.50;;;4.50;;
76807;SDS011;65758;45.458;11.062;2023-07-31T03:02:46;4.70;;;4.30;;
76807;SDS011;65758;45.458;11.062;2023-07-31T03:05:13;4.40;;;4.00;;
76807;SDS011;65758;45.458;11.062;2023-07-31T03:07:41;6.10;;;4.50;;
76807;SDS011;65758;45.458;11.062;2023-07-31T03:10:08;5.20;;;4.70;;
76807;SDS011;65758;45.458;11.062;2023-07-31T03:12:35;10.30;;;4.50;;
76807;SDS011;65758;45.458;11.062;2023-07-31T03:15:02;7.70;;;4.60;;
76807;SDS011;65758;45.458;11.062;2023-07-31T03:17:29;6.10;;;4.60;;
76807;SDS011;65758;45.458;11.062;2023-07-31T03:19:56;5.00;;;4.50;;
76807;SDS011;65758;45.458;11.062;2023-07-31T03:22:22;5.70;;;4.30;;
76807;SDS011;65758;45.458;11.062;2023-07-31T03:24:50;4.90;;;4.40;;
76807;SDS011;65758;45.458;11.062;2023-07-31T03:27:16;5.20;;;4.50;;
76807;SDS011;65758;45.458;11.062;2023-07-31T03:29:43;5.60;;;4.70;;
76807;SDS011;65758;45.458;11.062;2023-07-31T03:32:10;5.30;;;4.80;;
76807;SDS011;65758;45.458;11.062;2023-07-31T03:34:37;6.30;;;4.20;;
76807;SDS011;65758;45.458;11.062;2023-07-31T03:37:05;6.40;;;4.50;;
76807;SDS011;65758;45.458;11.062;2023-07-31T03:39:32;4.90;;;4.30;;
76807;SDS011;65758;45.458;11.062;2023-07-31T03:41:59;4.90;;;4.50;;
76807;SDS011;65758;45.458;11.062;2023-07-31T03:44:28;5.20;;;4.50;;
76807;SDS011;65758;45.458;11.062;2023-07-31T03:46:55;6.30;;;4.80;;
76807;SDS011;65758;45.458;11.062;2023-07-31T03:49:21;6.60;;;5.00;;
76807;SDS011;65758;45.458;11.062;2023-07-31T03:51:49;5.40;;;4.70;;
76807;SDS011;65758;45.458;11.062;2023-07-31T03:54:16;5.30;;;4.30;;
76807;SDS011;65758;45.458;11.062;2023-07-31T03:56:43;6.50;;;4.30;;
76807;SDS011;65758;45.458;11.062;2023-07-31T03:59:10;5.00;;;4.60;;
76807;SDS011;65758;45.458;11.062;2023-07-31T04:01:36;5.80;;;4.60;;
76807;SDS011;65758;45.458;11.062;2023-07-31T04:04:03;5.80;;;4.60;;
76807;SDS011;65758;45.458;11.062;2023-07-31T04:06:30;8.30;;;4.70;;
76807;SDS011;65758;45.458;11.062;2023-07-31T04:08:57;5.50;;;4.50;;
76807;SDS011;65758;45.458;11.062;2023-07-31T04:11:24;5.70;;;4.70;;
76807;SDS011;65758;45.458;11.062;2023-07-31T04:13:51;6.60;;;4.40;;
76807;SDS011;65758;45.458;11.062;2023-07-31T04:16:17;7.40;;;4.80;;
76807;SDS011;65758;45.458;11.062;2023-07-31T04:18:44;6.70;;;4.70;;
76807;SDS011;65758;45.458;11.062;2023-07-31T04:21:11;7.00;;;4.60;;
76807;SDS011;65758;45.458;11.062;2023-07-31T04:23:38;5.20;;;4.70;;
76807;SDS011;65758;45.458;11.062;2023-07-31T04:26:05;4.70;;;4.30;;
76807;SDS011;65758;45.458;11.062;2023-07-31T04:28:32;4.90;;;4.40;;
76807;SDS011;65758;45.458;11.062;2023-07-31T04:30:59;5.20;;;4.70;;
76807;SDS011;65758;45.458;11.062;2023-07-31T04:33:26;4.90;;;4.40;;
76807;SDS011;65758;45.458;11.062;2023-07-31T04:35:53;9.80;;;5.20;;
76807;SDS011;65758;45.458;11.062;2023-07-31T04:38:21;6.00;;;4.70;;
76807;SDS011;65758;45.458;11.062;2023-07-31T04:40:48;5.60;;;4.10;;
76807;SDS011;65758;45.458;11.062;2023-07-31T04:43:15;4.40;;;4.00;;
76807;SDS011;65758;45.458;11.062;2023-07-31T04:45:42;4.70;;;4.30;;
76807;SDS011;65758;45.458;11.062;2023-07-31T04:48:12;4.50;;;4.10;;
76807;SDS011;65758;45.458;11.062;2023-07-31T04:50:39;5.20;;;4.40;;
76807;SDS011;65758;45.458;11.062;2023-07-31T04:53:06;4.40;;;4.00;;
76807;SDS011;65758;45.458;11.062;2023-07-31T04:55:33;4.20;;;3.80;;
76807;SDS011;65758;45.458;11.062;2023-07-31T04:58:00;4.30;;;3.90;;
76807;SDS011;65758;45.458;11.062;2023-07-31T05:00:27;4.20;;;3.80;;
76807;SDS011;65758;45.458;11.062;2023-07-31T05:02:53;4.60;;;4.20;;
76807;SDS011;65758;45.458;11.062;2023-07-31T05:05:20;6.20;;;4.30;;
76807;SDS011;65758;45.458;11.062;2023-07-31T05:07:47;4.30;;;4.00;;
76807;SDS011;65758;45.458;11.062;2023-07-31T05:10:14;4.50;;;3.70;;
76807;SDS011;65758;45.458;11.062;2023-07-31T05:12:41;6.60;;;4.20;;
76807;SDS011;65758;45.458;11.062;2023-07-31T05:15:08;5.80;;;4.20;;
76807;SDS011;65758;45.458;11.062;2023-07-31T05:17:35;4.80;;;3.90;;
76807;SDS011;65758;45.458;11.062;2023-07-31T05:20:02;4.00;;;3.70;;
76807;SDS011;65758;45.458;11.062;2023-07-31T05:22:29;4.00;;;3.60;;
76807;SDS011;65758;45.458;11.062;2023-07-31T05:24:56;5.40;;;4.00;;
76807;SDS011;65758;45.458;11.062;2023-07-31T05:27:22;4.90;;;4.40;;
76807;SDS011;65758;45.458;11.062;2023-07-31T05:29:49;4.40;;;3.90;;
76807;SDS011;65758;45.458;11.062;2023-07-31T05:32:16;4.00;;;3.70;;
76807;SDS011;65758;45.458;11.062;2023-07-31T05:34:43;3.80;;;3.50;;
76807;SDS011;65758;45.458;11.062;2023-07-31T05:37:10;4.00;;;3.40;;
76807;SDS011;65758;45.458;11.062;2023-07-31T05:39:38;3.70;;;3.40;;
76807;SDS011;65758;45.458;11.062;2023-07-31T05:42:05;4.90;;;3.80;;
76807;SDS011;65758;45.458;11.062;2023-07-31T05:44:32;6.50;;;4.20;;
76807;SDS011;65758;45.458;11.062;2023-07-31T05:46:58;5.10;;;4.60;;
76807;SDS011;65758;45.458;11.062;2023-07-31T05:49:25;6.50;;;4.30;;
76807;SDS011;65758;45.458;11.062;2023-07-31T05:51:52;4.40;;;4.00;;
76807;SDS011;65758;45.458;11.062;2023-07-31T05:54:19;4.60;;;4.10;;
76807;SDS011;65758;45.458;11.062;2023-07-31T05:56:46;5.00;;;3.70;;
76807;SDS011;65758;45.458;11.062;2023-07-31T05:59:13;4.30;;;3.90;;
76807;SDS011;65758;45.458;11.062;2023-07-31T06:01:40;4.10;;;3.40;;
76807;SDS011;65758;45.458;11.062;2023-07-31T06:04:07;4.20;;;3.60;;
76807;SDS011;65758;45.458;11.062;2023-07-31T06:06:34;4.20;;;3.30;;
76807;SDS011;65758;45.458;11.062;2023-07-31T06:09:01;4.10;;;3.70;;
76807;SDS011;65758;45.458;11.062;2023-07-31T06:11:28;4.80;;;3.90;;
76807;SDS011;65758;45.458;11.062;2023-07-31T06:13:54;6.80;;;4.50;;
76807;SDS011;65758;45.458;11.062;2023-07-31T06:16:21;5.10;;;4.60;;
76807;SDS011;65758;45.458;11.062;2023-07-31T06:18:49;7.00;;;5.10;;
76807;SDS011;65758;45.458;11.062;2023-07-31T06:21:16;5.50;;;4.80;;
76807;SDS011;65758;45.458;11.062;2023-07-31T06:23:43;6.40;;;4.60;;
76807;SDS011;65758;45.458;11.062;2023-07-31T06:26:10;5.80;;;5.20;;
76807;SDS011;65758;45.458;11.062;2023-07-31T06:28:37;5.30;;;4.80;;
76807;SDS011;65758;45.458;11.062;2023-07-31T06:31:04;5.70;;;4.60;;
76807;SDS011;65758;45.458;11.062;2023-07-31T06:33:31;6.10;;;5.30;;
76807;SDS011;65758;45.458;11.062;2023-07-31T06:35:58;5.60;;;4.80;;
76807;SDS011;65758;45.458;11.062;2023-07-31T06:38:25;5.20;;;4.70;;
76807;SDS011;65758;45.458;11.062;2023-07-31T06:40:53;6.30;;;5.10;;
76807;SDS011;65758;45.458;11.062;2023-07-31T06:43:20;8.60;;;5.60;;
76807;SDS011;65758;45.458;11.062;2023-07-31T06:45:47;6.10;;;5.50;;
76807;SDS011;65758;45.458;11.062;2023-07-31T06:48:17;6.60;;;5.90;;
76807;SDS011;65758;45.458;11.062;2023-07-31T06:50:44;6.10;;;5.20;;
76807;SDS011;65758;45.458;11.062;2023-07-31T06:53:10;7.30;;;5.80;;
76807;SDS011;65758;45.458;11.062;2023-07-31T06:55:37;6.60;;;5.70;;
76807;SDS011;65758;45.458;11.062;2023-07-31T06:58:04;6.20;;;5.60;;
76807;SDS011;65758;45.458;11.062;2023-07-31T07:00:31;6.40;;;5.70;;
76807;SDS011;65758;45.458;11.062;2023-07-31T07:02:59;6.50;;;5.90;;
76807;SDS011;65758;45.458;11.062;2023-07-31T07:05:25;7.50;;;6.00;;
76807;SDS011;65758;45.458;11.062;2023-07-31T07:07:53;7.00;;;5.50;;
76807;SDS011;65758;45.458;11.062;2023-07-31T07:10:19;5.90;;;5.30;;
76807;SDS011;65758;45.458;11.062;2023-07-31T07:12:47;6.70;;;5.10;;
76807;SDS011;65758;45.458;11.062;2023-07-31T07:15:15;6.50;;;5.40;;
76807;SDS011;65758;45.458;11.062;2023-07-31T07:17:42;5.20;;;4.60;;
76807;SDS011;65758;45.458;11.062;2023-07-31T07:20:09;7.50;;;4.50;;
76807;SDS011;65758;45.458;11.062;2023-07-31T07:22:35;7.30;;;5.20;;
76807;SDS011;65758;45.458;11.062;2023-07-31T07:25:03;5.60;;;5.10;;
76807;SDS011;65758;45.458;11.062;2023-07-31T07:27:30;4.80;;;4.10;;
76807;SDS011;65758;45.458;11.062;2023-07-31T07:29:57;7.00;;;4.40;;
76807;SDS011;65758;45.458;11.062;2023-07-31T07:32:24;4.60;;;4.20;;
76807;SDS011;65758;45.458;11.062;2023-07-31T07:34:51;4.60;;;4.20;;
76807;SDS011;65758;45.458;11.062;2023-07-31T07:37:18;4.50;;;3.90;;
76807;SDS011;65758;45.458;11.062;2023-07-31T07:39:45;4.90;;;3.90;;
76807;SDS011;65758;45.458;11.062;2023-07-31T07:42:11;5.80;;;3.50;;
76807;SDS011;65758;45.458;11.062;2023-07-31T07:44:38;5.80;;;4.30;;
76807;SDS011;65758;45.458;11.062;2023-07-31T07:47:05;6.60;;;3.70;;
76807;SDS011;65758;45.458;11.062;2023-07-31T07:49:33;4.80;;;4.20;;
76807;SDS011;65758;45.458;11.062;2023-07-31T07:52:02;5.40;;;4.00;;
76807;SDS011;65758;45.458;11.062;2023-07-31T07:54:29;5.90;;;3.80;;
76807;SDS011;65758;45.458;11.062;2023-07-31T07:56:57;5.20;;;4.40;;
76807;SDS011;65758;45.458;11.062;2023-07-31T07:59:24;5.40;;;4.10;;
76807;SDS011;65758;45.458;11.062;2023-07-31T08:01:51;9.10;;;3.60;;
76807;SDS011;65758;45.458;11.062;2023-07-31T08:04:17;5.50;;;3.00;;
76807;SDS011;65758;45.458;11.062;2023-07-31T08:06:44;2.30;;;2.20;;
76807;SDS011;65758;45.458;11.062;2023-07-31T08:09:11;2.40;;;2.20;;
76807;SDS011;65758;45.458;11.062;2023-07-31T08:11:38;2.10;;;1.90;;
76807;SDS011;65758;45.458;11.062;2023-07-31T08:14:05;1.70;;;1.50;;
76807;SDS011;65758;45.458;11.062;2023-07-31T08:16:31;2.10;;;1.80;;
76807;SDS011;65758;45.458;11.062;2023-07-31T08:18:58;2.30;;;1.60;;
76807;SDS011;65758;45.458;11.062;2023-07-31T08:21:26;3.50;;;1.70;;
76807;SDS011;65758;45.458;11.062;2023-07-31T08:23:52;1.60;;;1.50;;
76807;SDS011;65758;45.458;11.062;2023-07-31T08:26:19;3.60;;;1.90;;
76807;SDS011;65758;45.458;11.062;2023-07-31T08:28:47;2.50;;;1.80;;
76807;SDS011;65758;45.458;11.062;2023-07-31T08:31:14;2.10;;;1.90;;
76807;SDS011;65758;45.458;11.062;2023-07-31T08:33:41;2.00;;;1.80;;
76807;SDS011;65758;45.458;11.062;2023-07-31T08:36:08;1.80;;;1.70;;
76807;SDS011;65758;45.458;11.062;2023-07-31T08:38:35;1.60;;;1.50;;
76807;SDS011;65758;45.458;11.062;2023-07-31T08:41:05;3.10;;;1.80;;
76807;SDS011;65758;45.458;11.062;2023-07-31T08:43:32;5.50;;;1.90;;
76807;SDS011;65758;45.458;11.062;2023-07-31T08:46:00;1.70;;;1.60;;
76807;SDS011;65758;45.458;11.062;2023-07-31T08:48:28;2.50;;;1.50;;
76807;SDS011;65758;45.458;11.062;2023-07-31T08:50:57;2.60;;;1.60;;
76807;SDS011;65758;45.458;11.062;2023-07-31T08:53:24;4.10;;;1.80;;
76807;SDS011;65758;45.458;11.062;2023-07-31T08:55:52;3.80;;;1.70;;
76807;SDS011;65758;45.458;11.062;2023-07-31T08:58:19;1.80;;;1.70;;
76807;SDS011;65758;45.458;11.062;2023-07-31T09:00:47;2.40;;;1.70;;
76807;SDS011;65758;45.458;11.062;2023-07-31T09:03:17;1.60;;;1.50;;
76807;SDS011;65758;45.458;11.062;2023-07-31T09:05:45;2.00;;;1.50;;
76807;SDS011;65758;45.458;11.062;2023-07-31T09:08:14;1.40;;;1.40;;
76807;SDS011;65758;45.458;11.062;2023-07-31T09:10:45;1.40;;;1.30;;
76807;SDS011;65758;45.458;11.062;2023-07-31T09:13:13;3.00;;;1.50;;
76807;SDS011;65758;45.458;11.062;2023-07-31T09:15:42;1.40;;;1.30;;
76807;SDS011;65758;45.458;11.062;2023-07-31T09:18:10;1.30;;;1.20;;
76807;SDS011;65758;45.458;11.062;2023-07-31T09:20:38;1.40;;;1.40;;
76807;SDS011;65758;45.458;11.062;2023-07-31T09:23:08;3.30;;;1.40;;
76807;SDS011;65758;45.458;11.062;2023-07-31T09:25:43;1.40;;;1.10;;
76807;SDS011;65758;45.458;11.062;2023-07-31T09:28:11;1.50;;;1.40;;
76807;SDS011;65758;45.458;11.062;2023-07-31T09:30:49;2.10;;;1.40;;
76807;SDS011;65758;45.458;11.062;2023-07-31T09:33:17;1.70;;;1.50;;
76807;SDS011;65758;45.458;11.062;2023-07-31T09:35:46;1.70;;;1.40;;
76807;SDS011;65758;45.458;11.062;2023-07-31T09:38:16;1.80;;;1.30;;
76807;SDS011;65758;45.458;11.062;2023-07-31T09:40:44;2.00;;;1.60;;
76807;SDS011;65758;45.458;11.062;2023-07-31T09:43:13;1.60;;;1.50;;
76807;SDS011;65758;45.458;11.062;2023-07-31T09:45:45;2.20;;;1.70;;
76807;SDS011;65758;45.458;11.062;2023-07-31T09:48:14;1.70;;;1.60;;
76807;SDS011;65758;45.458;11.062;2023-07-31T09:50:44;1.90;;;1.70;;
76807;SDS011;65758;45.458;11.062;2023-07-31T09:53:12;2.00;;;1.80;;
76807;SDS011;65758;45.458;11.062;2023-07-31T09:55:40;1.80;;;1.70;;
76807;SDS011;65758;45.458;11.062;2023-07-31T09:58:09;4.70;;;2.10;;
76807;SDS011;65758;45.458;11.062;2023-07-31T10:00:37;1.70;;;1.60;;
76807;SDS011;65758;45.458;11.062;2023-07-31T10:03:07;1.90;;;1.70;;
76807;SDS011;65758;45.458;11.062;2023-07-31T10:05:42;2.70;;;1.80;;
76807;SDS011;65758;45.458;11.062;2023-07-31T10:08:16;1.60;;;1.50;;
76807;SDS011;65758;45.458;11.062;2023-07-31T10:10:46;1.40;;;1.30;;
76807;SDS011;65758;45.458;11.062;2023-07-31T10:13:13;1.50;;;1.40;;
76807;SDS011;65758;45.458;11.062;2023-07-31T10:15:41;1.80;;;1.70;;
76807;SDS011;65758;45.458;11.062;2023-07-31T10:18:10;2.00;;;1.50;;
76807;SDS011;65758;45.458;11.062;2023-07-31T10:20:39;1.70;;;1.30;;
76807;SDS011;65758;45.458;11.062;2023-07-31T10:23:07;1.30;;;1.20;;
76807;SDS011;65758;45.458;11.062;2023-07-31T10:25:35;1.50;;;1.40;;
76807;SDS011;65758;45.458;11.062;2023-07-31T10:28:03;2.10;;;1.60;;
76807;SDS011;65758;45.458;11.062;2023-07-31T10:30:30;1.50;;;1.40;;
76807;SDS011;65758;45.458;11.062;2023-07-31T10:33:01;1.60;;;1.40;;
76807;SDS011;65758;45.458;11.062;2023-07-31T10:35:29;1.30;;;1.30;;
76807;SDS011;65758;45.458;11.062;2023-07-31T10:37:56;2.00;;;1.50;;
76807;SDS011;65758;45.458;11.062;2023-07-31T10:40:37;1.30;;;1.20;;
76807;SDS011;65758;45.458;11.062;2023-07-31T10:43:04;1.90;;;1.80;;
76807;SDS011;65758;45.458;11.062;2023-07-31T10:50:40;1.90;;;1.70;;
76807;SDS011;65758;45.458;11.062;2023-07-31T10:55:50;1.70;;;1.60;;
76807;SDS011;65758;45.458;11.062;2023-07-31T10:58:20;1.40;;;1.30;;
76807;SDS011;65758;45.458;11.062;2023-07-31T11:00:48;1.90;;;1.50;;
76807;SDS011;65758;45.458;11.062;2023-07-31T11:03:19;1.60;;;1.50;;
76807;SDS011;65758;45.458;11.062;2023-07-31T11:08:29;1.50;;;1.40;;
76807;SDS011;65758;45.458;11.062;2023-07-31T11:13:31;2.00;;;1.60;;
76807;SDS011;65758;45.458;11.062;2023-07-31T11:15:59;1.80;;;1.70;;
76807;SDS011;65758;45.458;11.062;2023-07-31T11:18:26;1.70;;;1.60;;
76807;SDS011;65758;45.458;11.062;2023-07-31T11:20:53;2.30;;;1.70;;
76807;SDS011;65758;45.458;11.062;2023-07-31T11:23:21;1.60;;;1.50;;
76807;SDS011;65758;45.458;11.062;2023-07-31T11:25:48;1.60;;;1.50;;
76807;SDS011;65758;45.458;11.062;2023-07-31T11:28:17;2.40;;;1.40;;
76807;SDS011;65758;45.458;11.062;2023-07-31T11:30:46;1.80;;;1.70;;
76807;SDS011;65758;45.458;11.062;2023-07-31T11:33:13;3.00;;;1.60;;
76807;SDS011;65758;45.458;11.062;2023-07-31T11:35:45;1.90;;;1.70;;
76807;SDS011;65758;45.458;11.062;2023-07-31T11:38:21;2.10;;;1.50;;
76807;SDS011;65758;45.458;11.062;2023-07-31T11:40:56;1.70;;;1.50;;
76807;SDS011;65758;45.458;11.062;2023-07-31T11:43:25;2.10;;;1.50;;
76807;SDS011;65758;45.458;11.062;2023-07-31T11:45:55;1.40;;;1.30;;
76807;SDS011;65758;45.458;11.062;2023-07-31T11:48:24;1.80;;;1.50;;
76807;SDS011;65758;45.458;11.062;2023-07-31T11:50:54;1.90;;;1.50;;
76807;SDS011;65758;45.458;11.062;2023-07-31T11:53:25;2.90;;;1.40;;
76807;SDS011;65758;45.458;11.062;2023-07-31T11:55:57;1.90;;;1.60;;
76807;SDS011;65758;45.458;11.062;2023-07-31T11:58:27;2.90;;;1.80;;
76807;SDS011;65758;45.458;11.062;2023-07-31T12:00:55;4.00;;;1.60;;
76807;SDS011;65758;45.458;11.062;2023-07-31T12:03:23;2.50;;;1.50;;
76807;SDS011;65758;45.458;11.062;2023-07-31T12:05:50;1.80;;;1.70;;
76807;SDS011;65758;45.458;11.062;2023-07-31T12:08:17;1.60;;;1.50;;
76807;SDS011;65758;45.458;11.062;2023-07-31T12:10:49;1.90;;;1.60;;
76807;SDS011;65758;45.458;11.062;2023-07-31T12:13:21;1.50;;;1.40;;
76807;SDS011;65758;45.458;11.062;2023-07-31T12:15:53;2.00;;;1.70;;
76807;SDS011;65758;45.458;11.062;2023-07-31T12:18:23;1.50;;;1.40;;
76807;SDS011;65758;45.458;11.062;2023-07-31T12:20:59;3.30;;;1.80;;
76807;SDS011;65758;45.458;11.062;2023-07-31T12:23:30;3.00;;;1.80;;
76807;SDS011;65758;45.458;11.062;2023-07-31T12:26:08;2.00;;;1.80;;
76807;SDS011;65758;45.458;11.062;2023-07-31T12:28:41;2.50;;;1.80;;
76807;SDS011;65758;45.458;11.062;2023-07-31T12:33:46;2.00;;;1.80;;
76807;SDS011;65758;45.458;11.062;2023-07-31T12:36:15;2.50;;;1.70;;
76807;SDS011;65758;45.458;11.062;2023-07-31T12:38:46;1.80;;;1.30;;
76807;SDS011;65758;45.458;11.062;2023-07-31T12:41:13;1.60;;;1.40;;
76807;SDS011;65758;45.458;11.062;2023-07-31T12:43:40;1.60;;;1.50;;
76807;SDS011;65758;45.458;11.062;2023-07-31T12:46:08;2.80;;;1.70;;
76807;SDS011;65758;45.458;11.062;2023-07-31T12:48:36;1.90;;;1.70;;
76807;SDS011;65758;45.458;11.062;2023-07-31T12:51:04;1.90;;;1.50;;
76807;SDS011;65758;45.458;11.062;2023-07-31T12:53:32;2.00;;;1.70;;
76807;SDS011;65758;45.458;11.062;2023-07-31T12:55:59;1.80;;;1.70;;
76807;SDS011;65758;45.458;11.062;2023-07-31T12:58:26;1.80;;;1.40;;
76807;SDS011;65758;45.458;11.062;2023-07-31T13:00:53;1.70;;;1.60;;
76807;SDS011;65758;45.458;11.062;2023-07-31T13:03:20;1.80;;;1.70;;
76807;SDS011;65758;45.458;11.062;2023-07-31T13:05:46;3.90;;;1.80;;
76807;SDS011;65758;45.458;11.062;2023-07-31T13:08:13;1.60;;;1.50;;
76807;SDS011;65758;45.458;11.062;2023-07-31T13:10:42;2.00;;;1.80;;
76807;SDS011;65758;45.458;11.062;2023-07-31T13:13:09;2.70;;;1.50;;
76807;SDS011;65758;45.458;11.062;2023-07-31T13:15:36;2.60;;;1.50;;
76807;SDS011;65758;45.458;11.062;2023-07-31T13:18:03;1.80;;;1.70;;
76807;SDS011;65758;45.458;11.062;2023-07-31T13:20:30;1.60;;;1.50;;
76807;SDS011;65758;45.458;11.062;2023-07-31T13:22:57;3.00;;;1.70;;
76807;SDS011;65758;45.458;11.062;2023-07-31T13:25:24;1.90;;;1.60;;
76807;SDS011;65758;45.458;11.062;2023-07-31T13:27:51;1.90;;;1.80;;
76807;SDS011;65758;45.458;11.062;2023-07-31T13:30:17;1.90;;;1.40;;
76807;SDS011;65758;45.458;11.062;2023-07-31T13:32:44;2.60;;;1.70;;
76807;SDS011;65758;45.458;11.062;2023-07-31T13:35:11;2.80;;;1.90;;
76807;SDS011;65758;45.458;11.062;2023-07-31T13:37:38;1.80;;;1.40;;
76807;SDS011;65758;45.458;11.062;2023-07-31T13:40:05;1.80;;;1.60;;
76807;SDS011;65758;45.458;11.062;2023-07-31T13:42:33;3.00;;;1.60;;
76807;SDS011;65758;45.458;11.062;2023-07-31T13:44:59;4.00;;;1.50;;
76807;SDS011;65758;45.458;11.062;2023-07-31T13:47:30;2.10;;;1.60;;
76807;SDS011;65758;45.458;11.062;2023-07-31T13:49:57;5.90;;;2.00;;
76807;SDS011;65758;45.458;11.062;2023-07-31T13:52:24;3.00;;;1.70;;
76807;SDS011;65758;45.458;11.062;2023-07-31T13:54:51;3.50;;;1.80;;
76807;SDS011;65758;45.458;11.062;2023-07-31T13:57:18;2.80;;;1.60;;
76807;SDS011;65758;45.458;11.062;2023-07-31T13:59:45;1.70;;;1.50;;
76807;SDS011;65758;45.458;11.062;2023-07-31T14:02:11;1.60;;;1.30;;
76807;SDS011;65758;45.458;11.062;2023-07-31T14:04:40;2.70;;;1.70;;
76807;SDS011;65758;45.458;11.062;2023-07-31T14:07:07;1.70;;;1.60;;
76807;SDS011;65758;45.458;11.062;2023-07-31T14:09:34;2.30;;;1.80;;
76807;SDS011;65758;45.458;11.062;2023-07-31T14:12:00;2.70;;;2.10;;
76807;SDS011;65758;45.458;11.062;2023-07-31T14:14:27;1.80;;;1.50;;
76807;SDS011;65758;45.458;11.062;2023-07-31T14:16:54;2.00;;;1.80;;
76807;SDS011;65758;45.458;11.062;2023-07-31T14:19:21;3.50;;;1.70;;
76807;SDS011;65758;45.458;11.062;2023-07-31T14:21:48;1.90;;;1.80;;
76807;SDS011;65758;45.458;11.062;2023-07-31T14:24:35;1.70;;;1.60;;
76807;SDS011;65758;45.458;11.062;2023-07-31T14:27:01;1.40;;;1.30;;
76807;SDS011;65758;45.458;11.062;2023-07-31T14:29:29;2.10;;;1.80;;
76807;SDS011;65758;45.458;11.062;2023-07-31T14:31:56;1.60;;;1.50;;
76807;SDS011;65758;45.458;11.062;2023-07-31T14:34:23;1.70;;;1.50;;
76807;SDS011;65758;45.458;11.062;2023-07-31T14:36:50;2.50;;;1.50;;
76807;SDS011;65758;45.458;11.062;2023-07-31T14:39:16;1.80;;;1.70;;
76807;SDS011;65758;45.458;11.062;2023-07-31T14:41:43;1.60;;;1.50;;
76807;SDS011;65758;45.458;11.062;2023-07-31T14:44:10;1.80;;;1.70;;
76807;SDS011;65758;45.458;11.062;2023-07-31T14:46:37;1.80;;;1.70;;
76807;SDS011;65758;45.458;11.062;2023-07-31T14:49:04;1.90;;;1.60;;
76807;SDS011;65758;45.458;11.062;2023-07-31T14:51:31;1.60;;;1.50;;
76807;SDS011;65758;45.458;11.062;2023-07-31T14:53:58;1.40;;;1.30;;
76807;SDS011;65758;45.458;11.062;2023-07-31T14:56:25;1.40;;;1.30;;
76807;SDS011;65758;45.458;11.062;2023-07-31T14:58:53;1.60;;;1.50;;